Palm Springs, CA

8:10 PM PDT on September 18, 2014 (GMT -0700)
CHINO CANYON | Change Station
CLOSE
Current Station
Personal Weather Station
Location: Palm Springs, CA
Elevation: 630 ft
Nearby Weather Stations
Active Advisory: Wind Advisory Active Notice: Record Report

Elev 630 ft 33.85 °N, 116.55 °W | Updated 47 seconds ago

Clear
Clear
89.5 °F
Feels Like 87 °F
N
6.0
Wind Variable Wind from NW
Gusts 12.0 mph

Today
High -- | Low -- °F
--% Chance of Precip.
Yesterday
High -- | Low -- °F
Precip. -- in
6:31 AM 6:48 PM
Waning Crescent, 22% visible
Pressure 29.66 in
Visibility 10.0 miles
Clouds Clear
Heat Index 87 °F
Dew Point 50 °F
Humidity 26%
Rainfall 0.00 in
Snow Depth 1 in , 0 in , 0 in
UV 0 out of 12
Pollen 6.10 out of 12
Ozone Good
Flu Activity Not available.
METAR KPSP 190253Z AUTO 31010KT 10SM CLR 34/11 A2967 RMK AO2 SLP042 T03390106 53008 TSNO

More Conditions Fewer Conditions

Pressure 29.66 in
Visibility 10.0 miles
Clouds Clear
Heat Index 87 °F
Dew Point 50 °F
Humidity 26%
Rainfall 0.00 in
Snow Depth 1 in , 0 in , 0 in
UV 0 out of 12
Pollen 6.10 out of 12
Ozone Good
Flu Activity Not available.
METAR KPSP 190253Z AUTO 31010KT 10SM CLR 34/11 A2967 RMK AO2 SLP042 T03390106 53008 TSNO

More Conditions Fewer Conditions

10-Day Weather Forecast

Almanac

Astronomy

Sep. 18, 2014 Rise Set
Actual Time 6:31 AM PDT 6:48 PM PDT
Civil Twilight 6:06 AM PDT 7:13 PM PDT
Nautical Twilight 5:37 AM PDT 7:42 PM PDT
Astronomical Twilight 5:07 AM PDT 8:12 PM PDT
Moon 1:38 AM PDT (9/18) 3:32 PM PDT (9/18)
Length of Visible Light 13h 06m
Length of Day
12h 16m
Tomorrow will be 2m 5s shorter.
Waning Crescent, 22% of the Moon is Illuminated
Today
Waning Crescent
Sep 24
New
Oct 1
First Quarter
Oct 8
Full
Oct 15
Last Quarter

Today's Extremes

State Highs State Lows

Community

WunderPhotos

Upload Photos

1,754,550 photos uploaded!

Nearby

Air Quality

  Air Quality AQ Index Pollutant
Yesterday Good
OZONE
Yesterday Good
PM10
Current Good
OZONE
Friday Moderate
OZONE
Friday Good
PM10
Friday Good
CO
Friday Good
NO2

Snow Depth

Station Depth Elevation
Adin Mountain 1 in 6200 ft
Monitor Pass 0 in 8350 ft
Rubicon #2 0 in 7500 ft
Tahoe City Cross 0 in 6750 ft
Summit Meadow 0 in 9122 ft

Earthquake Activity

City Distance Mag. Time & Date
La Quinta, California 24 miles 2.7 8:59 PM PDT
2014-09-15
Minimum magnitude displayed is 2.5.

Coastal Water Temperatures

Place Temperature
No Stations Reporting

Nearby Weather Stations